Portada
METAR-TAF:

METAR-TAF

Aeroports :

Farmington Regional Airport

Farmington, Missouri, Estats Units d'Amèrica

latitud: 37-46N, longitud: 090-26W, altitud: 288 m

Observació

L'informe es va fer fa 47 minuts, a les 22:56 UTC
Vent 6 kt del Sud
Temperatura 17°C
Humitat 68%
Pressió 1016 hPa
Visibilitat: 16.1 km
Cel cobert a una alçada de 6500 ft

METAR: KFAM 032256Z AUTO 18006KT 10SM OVC065 17/11 A3001 RMK AO2 SLP169 T01720106

Hora: 18:43 (23:43 UTC)


TAF: manca

Observacions i pronòstics meteorològics de més de 4000 aeroports (METAR i TAF).

Les estacions disponibles són els punts grocs i vermells al mapa.

Posi el ratolí al punt desitjat per veure el nom de l'estació.

Feu clic per veure les observacions i els pronòstics meteorològics.

Per canviar el mapa: feu clic els botons verds amb una creu de color negre per apropar; al botó verd amb un guió per allunyar la imatge; o en les fletxes verdes per a mapes adjacents.


METAR-TAF: